Natathlon (1) - Lyonnais (4)

Régionale

VÉNISSIEUX

Du Samedi 11 Decembre 2004 au Dimanche 12 Decembre 2004

Bassin de 25m

50 Dos Dames

Séries

Nom Année Club Pays Temps Points Niv.
1 BRACHET Cindy 1992 AC DÉCINES FRA 0:33:74 1088
2 ROCHETTE Lucie 1992 RILLIEUX NATATION FRA 0:36:33 946
3 FLATOT Charley 1992 TRITON CLUB BELLEVILLE FRA 0:37:33 893
4 LUSTIG Elsa 1992 EMS BRON FRA 0:37:60 879
5 TARDY Camille 1993 ND VILLEFRANCHE-EN-BEAUJOLAIS FRA 0:37:88 865
6 EMONARD Margot 1993 ND VILLEFRANCHE-EN-BEAUJOLAIS FRA 0:38:44 837
7 TYMEN Alizée 1992 SAL ST-PRIEST NATATION FRA 0:38:46 836
8 TOMASICCHIO Candice 1992 EMS BRON FRA 0:38:78 820
9 GRANGE Marie 1992 EMS BRON FRA 0:39:00 809
10 DAVIN Mélanie 1993 EMS BRON FRA 0:39:92 765
11 KEBBAB Farha 1992 SAL ST-PRIEST NATATION FRA 0:40:07 758
12 GOUAT Audrey 1992 AS CALUIRE FRA 0:40:22 751
13 SIMON Johanna 1993 EMS BRON FRA 0:40:34 745
14 MARIS Léa 1992 EMS BRON FRA 0:40:41 742
15 JUGNIOT Natacha 1992 TRITON CLUB BELLEVILLE FRA 0:40:82 723
16 MAZZOLA Marjorie 1993 EMS BRON FRA 0:41:22 704
17 RIBEIRO Mélissa 1993 CMO VÉNISSIEUX FRA 0:41:28 701
18 BOTRABY Nisrine 1992 AC DÉCINES FRA 0:41:39 696
19 CHIBI Hind 1992 EMS BRON FRA 0:41:39 696
20 BURICAND Mélissa 1992 CN TARARE FRA 0:41:44 694
21 POULAIN Marine 1993 ND VILLEFRANCHE-EN-BEAUJOLAIS FRA 0:41:73 681
22 VEUILLET Manon 1992 ASPTT LYON FRA 0:41:74 681
23 SCHOCH Armelle 1992 ASPTT LYON FRA 0:42:01 668
24 BOUVIER Lauren 1992 LYON NATATION FRA 0:42:46 649
25 LAMAIN Anais 1992 ND VILLEFRANCHE-EN-BEAUJOLAIS FRA 0:42:52 646
26 MALHERBE Constance 1992 ASPTT LYON FRA 0:42:54 645
27 PIETRI Léa 1993 ASPTT LYON FRA 0:42:60 642
28 JALLOT Delphine 1992 AS CALUIRE FRA 0:42:62 642
29 MATTEI Marine 1992 SAL ST-PRIEST NATATION FRA 0:42:69 639
30 ORKISZ Ania 1993 VILLEURBANNE NATATION FRA 0:42:81 633
31 ABRIAL Julie 1993 CMO VÉNISSIEUX FRA 0:43:04 623
32 CHEMINEAU Adelie 1993 AS CALUIRE FRA 0:43:47 605
33 TROUVE Lucie 1992 RILLIEUX NATATION FRA 0:43:51 603
34 MASSON Cyrielle 1992 AS CALUIRE FRA 0:43:63 598
35 JOURDAN Andréa 1992 EMS BRON FRA 0:43:79 592
36 DUBOIS Marlène 1992 ND VILLEFRANCHE-EN-BEAUJOLAIS FRA 0:44:44 565
37 MOREIRA Gwendoline 1993 SAL ST-PRIEST NATATION FRA 0:44:83 549
38 MECHKAR Lyana 1993 EMS BRON FRA 0:44:85 548
39 POTELLE Clelia 1992 AS CALUIRE FRA 0:45:10 538
40 MELIH Amel 1993 AC DÉCINES FRA 0:45:14 536
41 PINQUIER Justine 1993 AC DÉCINES FRA 0:45:16 535
42 SENOSIAIN Léa 1993 VIENNE DISTRICT NATATION FRA 0:45:47 523
43 CHET Stephie 1992 ND VILLEFRANCHE-EN-BEAUJOLAIS FRA 0:45:73 513
44 VIEUX Mathilde 1992 LYON NATATION FRA 0:45:84 509
45 ZEREZ Mélanie 1992 CMO VÉNISSIEUX FRA 0:45:94 505
46 CARCELES Mandy 1992 SAL ST-PRIEST NATATION FRA 0:46:04 501
47 FOURARI Ryzelene 1993 EMS BRON FRA 0:46:36 489
48 PAMEOLE Olivia 1993 CMO VÉNISSIEUX FRA 0:46:41 487
49 NGO Lina 1993 ASPTT LYON FRA 0:46:44 486
50 TOCCO Sandra 1992 EMS BRON FRA 0:47:18 458
51 GHELMA Marie 1992 VIENNE DISTRICT NATATION FRA 0:47:20 457
52 GINIES Victoria 1993 CHASSIEU NATATION FRA 0:47:26 455
53 DEVILLERS Isaline 1992 TRITON CLUB BELLEVILLE FRA 0:47:78 436
54 MONTOYA Alice 1993 VILLEURBANNE NATATION FRA 0:47:85 434
55 BRUN Laura 1993 ND VILLEFRANCHE-EN-BEAUJOLAIS FRA 0:48:07 426
56 PIACENZA Oceane 1992 SAUVETEURS GIVORS FRA 0:48:84 399
57 THEVENARD Sophie 1993 AS CALUIRE FRA 0:48:88 397
58 AMOUYAL Zoé 1992 EMS BRON FRA 0:49:07 391
59 PONTILLE Laura 1992 CHASSIEU NATATION FRA 0:49:14 388
60 FORT Camille 1992 AS CALUIRE FRA 0:49:39 380
61 MARTINASSO Joanna 1992 LYON NATATION FRA 0:49:60 373
62 SORIA Jessica 1992 SAUVETEURS GIVORS FRA 0:49:92 362
63 DEBBOUS Maywenn 1992 SAUVETEURS GIVORS FRA 0:49:95 361
64 CROLE Emilande 1993 VILLEURBANNE NATATION FRA 0:50:45 345
65 AMBLARD Camille 1992 CHASSIEU NATATION FRA 0:51:09 325
66 JOSEPH Célia 1993 LYON NATATION FRA 0:51:84 302
67 MALOT Laura 1993 SAUVETEURS GIVORS FRA 0:51:89 301
68 AUGAGNEUR Julie 1992 VIENNE DISTRICT NATATION FRA 0:52:06 296
69 PERRIN Joséphine 1993 CMO VÉNISSIEUX FRA 0:52:60 280
70 MIROUX Justine 1993 LYON NATATION FRA 0:52:64 279
71 NOUGBODOHOUE Joëlle 1993 EMS BRON FRA 0:52:78 275
72 DOUIBI Marie 1993 CHASSIEU NATATION FRA 0:52:81 274
73 HEMY Marion 1992 SAL ST-PRIEST NATATION FRA 0:54:95 216
74 GENOULAZ Caroline 1992 AS CALUIRE FRA 0:55:50 202
75 LABE Valentine 1993 EMS BRON FRA 0:58:33 139
76 THENOT Justine 1993 VILLEURBANNE NATATION FRA 0:58:45 137
77 VERDIER Juliette 1993 VILLEURBANNE NATATION FRA - Disq.
78 MORAT Marion 1992 AS CALUIRE FRA - Disq.
79 COSTE Chloé 1993 ND VILLEFRANCHE-EN-BEAUJOLAIS FRA - Disq.
80 AMEROUCHE Laurana 1992 SAUVETEURS GIVORS FRA - Disq.
81 GRENOUILLET Morgane 1993 SAUVETEURS GIVORS FRA - Disq.
82 GELEY Laurine 1992 CHASSIEU NATATION FRA - Disq.
83 OUAHNICH Christelle 1992 SAUVETEURS GIVORS FRA - Disq.
84 BON Bénédicte 1993 LYON NATATION FRA - Disq.
85 NEVEU Florence 1993 ND VILLEFRANCHE-EN-BEAUJOLAIS FRA - Disq.